createdAt,value
2017-11-18T08:18:06.634Z,1015.42
2017-11-18T08:19:28.367Z,1015.35
2017-11-18T08:20:50.093Z,1015.33
2017-11-18T08:22:11.862Z,1015.31
2017-11-18T08:23:33.667Z,1015.31
2017-11-18T08:24:55.666Z,1015.39
2017-11-18T08:26:17.397Z,1015.35
2017-11-18T08:27:38.905Z,1015.28
2017-11-18T08:29:01.185Z,1015.35
2017-11-18T08:30:23.201Z,1015.28
2017-11-18T08:31:45.195Z,1015.21
2017-11-18T08:33:06.908Z,1015.2
2017-11-18T08:34:29.307Z,1015.11
2017-11-18T08:35:51.103Z,1015.13
2017-11-18T08:37:12.859Z,1015.1
2017-11-18T08:38:34.647Z,1015.04
2017-11-18T08:39:56.734Z,1015.16
2017-11-18T08:41:18.149Z,1015.07
2017-11-18T08:42:40.169Z,1015.07
2017-11-18T08:44:02.203Z,1015.1
2017-11-18T08:45:24.584Z,1015.06
2017-11-18T08:46:46.357Z,1015.06
2017-11-18T08:48:08.416Z,1014.87
2017-11-18T08:49:29.886Z,1014.92
2017-11-18T08:50:51.951Z,1014.89
2017-11-18T08:52:13.477Z,1014.92
2017-11-18T08:53:35.457Z,1014.84
2017-11-18T08:54:56.905Z,1014.92
2017-11-18T08:56:18.997Z,1014.86
2017-11-18T08:57:41.308Z,1014.84
2017-11-18T08:59:03.345Z,1014.88
2017-11-18T09:00:25.205Z,1014.75
2017-11-18T09:01:46.927Z,1014.72
2017-11-18T09:03:08.675Z,1014.76
2017-11-18T09:04:31.119Z,1014.68
2017-11-18T09:05:53.208Z,1014.69
2017-11-18T09:07:15.047Z,1014.68
2017-11-18T09:08:37.226Z,1014.6
2017-11-18T09:09:58.982Z,1014.72
2017-11-18T09:11:21.106Z,1014.61
2017-11-18T09:12:43.354Z,1014.61
2017-11-18T09:14:05.123Z,1014.64
2017-11-18T09:15:27.657Z,1014.51
2017-11-18T09:16:49.956Z,1014.47
2017-11-18T09:18:11.171Z,1014.52
2017-11-18T09:19:33.464Z,1014.5
2017-11-18T09:20:55.494Z,1014.51
2017-11-18T09:22:17.240Z,1014.32
2017-11-18T09:23:38.736Z,1014.49
2017-11-18T09:25:01.023Z,1014.44
2017-11-18T09:26:23.058Z,1014.37
2017-11-18T09:27:45.158Z,1014.29
2017-11-18T09:29:07.410Z,1014.3
2017-11-18T09:30:29.398Z,1014.35
2017-11-18T09:31:51.415Z,1014.39
2017-11-18T09:33:13.685Z,1014.36
2017-11-18T09:34:35.761Z,1014.28
2017-11-18T09:35:58.081Z,1014.24
2017-11-18T09:37:19.556Z,1014.19
2017-11-18T09:38:41.879Z,1014.2
2017-11-18T09:40:04.166Z,1014.08
2017-11-18T09:41:26.486Z,1014.11
2017-11-18T09:42:48.206Z,1014.09
2017-11-18T09:44:10.036Z,1014.01
2017-11-18T09:45:32.164Z,1013.95
2017-11-18T09:46:54.455Z,1013.94
2017-11-18T09:48:16.548Z,1013.96
2017-11-18T09:49:38.297Z,1013.97
2017-11-18T09:51:00.582Z,1013.94
2017-11-18T09:52:22.040Z,1013.87
2017-11-18T09:53:44.406Z,1013.77
2017-11-18T09:55:06.672Z,1013.66
2017-11-18T09:56:28.665Z,1013.6
2017-11-18T09:57:50.658Z,1013.63
2017-11-18T09:59:12.676Z,1013.57
2017-11-18T10:00:34.217Z,1013.62
2017-11-18T10:01:55.719Z,1013.6
2017-11-18T10:03:17.450Z,1013.59
2017-11-18T10:04:39.914Z,1013.7
2017-11-18T10:06:01.399Z,1013.45
2017-11-18T10:07:23.419Z,1013.44
2017-11-18T10:08:45.480Z,1013.43
2017-11-18T10:10:07.801Z,1013.46
2017-11-18T10:11:29.828Z,1013.51
2017-11-18T10:12:52.464Z,1013.5
2017-11-18T10:14:14.516Z,1013.41
2017-11-18T10:15:36.529Z,1013.52
2017-11-18T10:16:58.652Z,1013.52
2017-11-18T10:18:20.666Z,1013.46
2017-11-18T10:19:42.128Z,1013.46
2017-11-18T10:21:03.596Z,1013.34
2017-11-18T10:22:25.645Z,1013.31
2017-11-18T10:23:47.408Z,1013.33
2017-11-18T10:25:09.411Z,1013.32
2017-11-18T10:26:31.418Z,1013.28
2017-11-18T10:27:53.769Z,1013.29
2017-11-18T10:29:16.071Z,1013.14
2017-11-18T10:30:38.106Z,1013.05
2017-11-18T10:32:00.127Z,1013.18
2017-11-18T10:33:22.136Z,1013.16
2017-11-18T10:34:44.436Z,1013.1
2017-11-18T10:36:06.191Z,1013.07
2017-11-18T10:37:28.494Z,1013.12
2017-11-18T10:38:50.000Z,1013.06
2017-11-18T10:40:11.864Z,1012.91
2017-11-18T10:41:34.186Z,1012.95
2017-11-18T10:42:55.916Z,1012.89
2017-11-18T10:44:17.695Z,1012.83
2017-11-18T10:45:40.084Z,1012.79
2017-11-18T10:47:01.947Z,1012.65
2017-11-18T10:48:24.355Z,1012.7
2017-11-18T10:49:46.405Z,1012.63
2017-11-18T10:51:07.874Z,1012.56
2017-11-18T10:52:29.617Z,1012.61
2017-11-18T10:53:51.616Z,1012.64
2017-11-18T10:55:13.932Z,1012.56
2017-11-18T10:56:36.235Z,1012.5
2017-11-18T10:57:58.035Z,1012.49
2017-11-18T10:59:20.125Z,1012.46
2017-11-18T11:00:41.589Z,1012.51
2017-11-18T11:02:03.046Z,1012.54
2017-11-18T11:03:25.077Z,1012.34
2017-11-18T11:04:47.147Z,1012.22
2017-11-18T11:06:09.192Z,1012.33
2017-11-18T11:07:32.997Z,1012.26
2017-11-18T11:08:55.135Z,1012.38
2017-11-18T11:10:17.166Z,1012.29
2017-11-18T11:11:39.466Z,1012.3
2017-11-18T11:13:01.316Z,1012.23
2017-11-18T11:14:23.556Z,1012.28
2017-11-18T11:15:45.347Z,1012.32
2017-11-18T11:17:07.339Z,1012.35
2017-11-18T11:18:29.125Z,1012.33
2017-11-18T11:19:51.516Z,1012.33
2017-11-18T11:21:13.547Z,1012.37
2017-11-18T11:22:35.278Z,1012.45
2017-11-18T11:23:57.017Z,1012.47
2017-11-18T11:25:19.037Z,1012.43
2017-11-18T11:26:41.354Z,1012.54
2017-11-18T11:28:02.876Z,1012.69
2017-11-18T11:29:24.337Z,1012.77
2017-11-18T11:30:46.646Z,1012.72
2017-11-18T11:32:08.687Z,1012.91
2017-11-18T11:33:30.955Z,1012.93
2017-11-18T11:34:53.257Z,1012.85
2017-11-18T11:36:15.502Z,1012.9
2017-11-18T11:37:37.519Z,1012.75
2017-11-18T11:38:59.856Z,1012.77
2017-11-18T11:40:21.864Z,1012.77
2017-11-18T11:41:43.614Z,1012.75
2017-11-18T11:43:05.936Z,1012.66
2017-11-18T11:44:28.277Z,1012.67
2017-11-18T11:45:50.915Z,1012.65
2017-11-18T11:47:12.411Z,1012.47
2017-11-18T11:48:34.254Z,1012.29
2017-11-18T11:49:56.570Z,1012.39
2017-11-18T11:51:18.917Z,1012.34
2017-11-18T11:52:40.960Z,1012.45
2017-11-18T11:54:02.707Z,1012.44
2017-11-18T11:55:24.475Z,1012.48
2017-11-18T11:56:46.535Z,1012.5
2017-11-18T11:58:08.535Z,1012.54
2017-11-18T11:59:30.268Z,1012.56
2017-11-18T12:00:52.366Z,1012.54
2017-11-18T12:02:14.730Z,1012.56
2017-11-18T12:03:36.806Z,1012.57
2017-11-18T12:04:59.059Z,1012.54
2017-11-18T12:06:20.807Z,1012.6
2017-11-18T12:07:42.815Z,1012.59
2017-11-18T12:09:04.976Z,1012.58
2017-11-18T12:10:27.822Z,1012.57
2017-11-18T12:11:49.849Z,1012.62
2017-11-18T12:13:11.797Z,1012.6
2017-11-18T12:14:34.065Z,1012.59
2017-11-18T12:15:55.556Z,1012.63
2017-11-18T12:17:17.307Z,1012.61
2017-11-18T12:18:39.334Z,1012.71
2017-11-18T12:20:01.334Z,1012.85
2017-11-18T12:21:23.110Z,1012.95
2017-11-18T12:22:44.596Z,1013.17
2017-11-18T12:24:06.479Z,1013.21
2017-11-18T12:25:28.497Z,1013.2
2017-11-18T12:26:50.966Z,1013.01
2017-11-18T12:28:13.006Z,1013
2017-11-18T12:29:34.858Z,1013.08
2017-11-18T12:30:56.927Z,1013.04
2017-11-18T12:32:18.727Z,1012.97
2017-11-18T12:33:40.838Z,1012.93
2017-11-18T12:35:02.377Z,1012.91
2017-11-18T12:36:24.126Z,1012.93
2017-11-18T12:37:46.223Z,1012.91
2017-11-18T12:39:08.268Z,1012.95
2017-11-18T12:40:30.036Z,1012.86
2017-11-18T12:41:52.067Z,1012.89
2017-11-18T12:43:14.464Z,1012.9
2017-11-18T12:44:35.956Z,1012.86
2017-11-18T12:45:57.826Z,1012.93
2017-11-18T12:47:20.253Z,1012.93
2017-11-18T12:48:41.525Z,1012.95
2017-11-18T12:50:03.608Z,1012.91
2017-11-18T12:51:25.364Z,1012.94
2017-11-18T12:52:47.092Z,1012.94
2017-11-18T12:54:08.856Z,1012.95
2017-11-18T12:55:30.906Z,1012.91
2017-11-18T12:56:53.005Z,1012.9
2017-11-18T12:58:14.477Z,1012.85
2017-11-18T12:59:37.981Z,1012.84
2017-11-18T13:01:00.142Z,1012.82
2017-11-18T13:02:22.492Z,1012.96
2017-11-18T13:03:44.514Z,1012.99
2017-11-18T13:05:06.268Z,1012.88
2017-11-18T13:06:27.711Z,1012.86
2017-11-18T13:07:49.990Z,1012.69
2017-11-18T13:09:11.742Z,1012.58
2017-11-18T13:10:33.193Z,1012.5
2017-11-18T13:11:54.945Z,1012.56
2017-11-18T13:13:17.547Z,1012.59
2017-11-18T13:14:39.570Z,1012.43
2017-11-18T13:16:01.597Z,1012.49
2017-11-18T13:17:23.326Z,1012.55
2017-11-18T13:18:45.366Z,1012.49
2017-11-18T13:20:07.393Z,1012.53
2017-11-18T13:21:29.413Z,1012.46
2017-11-18T13:22:51.144Z,1012.36
2017-11-18T13:24:13.264Z,1012.38
2017-11-18T13:25:35.573Z,1012.34
2017-11-18T13:26:57.574Z,1012.38
2017-11-18T13:28:19.875Z,1012.32
2017-11-18T13:29:41.887Z,1012.37
2017-11-18T13:31:05.650Z,1012.35
2017-11-18T13:32:27.926Z,1012.35
2017-11-18T13:33:50.209Z,1012.4
2017-11-18T13:35:12.640Z,1012.37
2017-11-18T13:36:34.416Z,1012.27
2017-11-18T13:37:56.165Z,1012.37
2017-11-18T13:39:17.940Z,1012.36
2017-11-18T13:40:39.702Z,1012.38
2017-11-18T13:42:01.864Z,1012.4
2017-11-18T13:43:23.887Z,1012.4
2017-11-18T13:44:46.304Z,1012.33
2017-11-18T13:46:08.075Z,1012.34
2017-11-18T13:47:30.422Z,1012.41
2017-11-18T13:48:52.414Z,1012.44
2017-11-18T13:50:14.424Z,1012.45
2017-11-18T13:51:36.447Z,1012.46
2017-11-18T13:52:58.475Z,1012.52
2017-11-18T13:54:20.521Z,1012.52
2017-11-18T13:55:42.639Z,1012.5
2017-11-18T13:57:03.829Z,1012.46
2017-11-18T13:58:25.836Z,1012.48
2017-11-18T13:59:47.871Z,1012.54
2017-11-18T14:01:09.705Z,1012.48
2017-11-18T14:02:31.751Z,1012.6
2017-11-18T14:03:53.816Z,1012.59
2017-11-18T14:05:15.841Z,1012.63
2017-11-18T14:06:37.570Z,1012.5
2017-11-18T14:07:59.593Z,1012.48
2017-11-18T14:09:21.940Z,1012.5
2017-11-18T14:10:43.967Z,1012.49
2017-11-18T14:12:05.705Z,1012.45
2017-11-18T14:13:28.419Z,1012.48
2017-11-18T14:14:50.169Z,1012.53
2017-11-18T14:16:12.170Z,1012.53
2017-11-18T14:17:33.923Z,1012.52
2017-11-18T14:18:56.548Z,1012.56
2017-11-18T14:20:18.584Z,1012.51
2017-11-18T14:21:40.324Z,1012.51
2017-11-18T14:23:02.342Z,1012.5
2017-11-18T14:24:24.366Z,1012.5
2017-11-18T14:25:46.666Z,1012.46
2017-11-18T14:27:08.730Z,1012.52
2017-11-18T14:28:31.459Z,1012.57
2017-11-18T14:29:53.770Z,1012.62
2017-11-18T14:31:16.088Z,1012.54
2017-11-18T14:32:38.441Z,1012.56
2017-11-18T14:34:00.486Z,1012.61
2017-11-18T14:35:22.532Z,1012.51
2017-11-18T14:36:44.912Z,1012.58
2017-11-18T14:38:06.688Z,1012.56
2017-11-18T14:39:28.796Z,1012.59
2017-11-18T14:40:50.701Z,1012.56
2017-11-18T14:42:12.855Z,1012.61
2017-11-18T14:43:34.600Z,1012.66
2017-11-18T14:44:56.909Z,1012.63
2017-11-18T14:46:18.896Z,1012.65
2017-11-18T14:47:40.946Z,1012.67
2017-11-18T14:49:03.258Z,1012.64
2017-11-18T14:50:25.257Z,1012.71
2017-11-18T14:51:47.000Z,1012.77
2017-11-18T14:53:08.742Z,1012.76
2017-11-18T14:54:31.056Z,1012.75
2017-11-18T14:55:52.798Z,1012.75
2017-11-18T14:57:15.064Z,1012.73
2017-11-18T14:58:37.057Z,1012.78
2017-11-18T14:59:58.808Z,1012.87
2017-11-18T15:01:20.591Z,1012.92
2017-11-18T15:02:42.919Z,1012.94
2017-11-18T15:04:05.218Z,1012.95
2017-11-18T15:05:27.276Z,1012.98
2017-11-18T15:06:49.039Z,1012.96
2017-11-18T15:08:11.059Z,1012.99
2017-11-18T15:09:33.356Z,1012.95
2017-11-18T15:10:55.358Z,1012.89
2017-11-18T15:12:17.199Z,1012.86
2017-11-18T15:13:39.528Z,1012.88
2017-11-18T15:15:01.822Z,1012.84
2017-11-18T15:16:23.956Z,1012.84
2017-11-18T15:17:46.397Z,1012.81
2017-11-18T15:19:08.429Z,1012.86
2017-11-18T15:20:30.761Z,1012.84
2017-11-18T15:21:53.670Z,1012.79
2017-11-18T15:23:17.271Z,1012.8
2017-11-18T15:24:39.374Z,1012.77
2017-11-18T15:26:01.451Z,1012.77
2017-11-18T15:27:23.811Z,1012.76
2017-11-18T15:28:45.748Z,1012.77
2017-11-18T15:30:07.552Z,1012.78
2017-11-18T15:31:29.877Z,1012.77
2017-11-18T15:32:51.526Z,1012.79
2017-11-18T15:34:14.088Z,1012.79
2017-11-18T15:35:36.297Z,1012.84
2017-11-18T15:36:58.349Z,1012.89
2017-11-18T15:38:20.796Z,1012.89
2017-11-18T15:39:42.917Z,1012.88
2017-11-18T15:41:04.667Z,1012.91
2017-11-18T15:42:26.549Z,1012.92
2017-11-18T15:43:48.861Z,1012.9
2017-11-18T15:45:13.058Z,1012.93
2017-11-18T15:46:35.352Z,1012.88
2017-11-18T15:47:57.397Z,1012.91
2017-11-18T15:49:19.286Z,1012.93
2017-11-18T15:50:41.358Z,1012.94
2017-11-18T15:52:03.688Z,1012.97
2017-11-18T15:53:25.836Z,1012.91
2017-11-18T15:54:47.859Z,1012.94
2017-11-18T15:56:10.266Z,1012.95
2017-11-18T15:57:32.689Z,1012.93
2017-11-18T15:58:55.517Z,1012.88
2017-11-18T16:00:18.560Z,1012.93
2017-11-18T16:01:40.596Z,1012.9
2017-11-18T16:03:02.624Z,1012.91
2017-11-18T16:04:24.416Z,1012.94
2017-11-18T16:05:46.750Z,1012.89
2017-11-18T16:07:08.003Z,1012.97
2017-11-18T16:08:29.747Z,1012.99
2017-11-18T16:09:51.236Z,1012.96
2017-11-18T16:11:12.807Z,1012.95
2017-11-18T16:12:35.146Z,1012.93
2017-11-18T16:13:57.192Z,1012.9
2017-11-18T16:15:18.948Z,1012.87
2017-11-18T16:16:40.976Z,1012.9
2017-11-18T16:18:02.727Z,1012.88
2017-11-18T16:19:25.036Z,1012.91
2017-11-18T16:20:47.415Z,1012.92
2017-11-18T16:22:09.236Z,1012.94
2017-11-18T16:23:31.310Z,1012.99
2017-11-18T16:24:53.346Z,1012.98
2017-11-18T16:26:15.418Z,1012.96
2017-11-18T16:27:37.224Z,1012.91
2017-11-18T16:28:59.297Z,1012.89
2017-11-18T16:30:21.374Z,1012.92
2017-11-18T16:31:43.657Z,1012.91
2017-11-18T16:33:06.004Z,1012.88
2017-11-18T16:34:27.752Z,1012.92
2017-11-18T16:35:49.769Z,1012.84
2017-11-18T16:37:11.838Z,1012.84
2017-11-18T16:38:33.925Z,1012.81
2017-11-18T16:39:56.058Z,1012.83
2017-11-18T16:41:17.793Z,1012.81
2017-11-18T16:42:39.545Z,1012.77
2017-11-18T16:44:01.567Z,1012.78
2017-11-18T16:45:23.573Z,1012.79
2017-11-18T16:46:45.897Z,1012.82
2017-11-18T16:48:08.198Z,1012.88
2017-11-18T16:49:30.535Z,1012.88
2017-11-18T16:50:52.058Z,1012.88
2017-11-18T16:52:14.096Z,1012.91
2017-11-18T16:53:36.406Z,1012.85
2017-11-18T16:54:58.745Z,1012.87
2017-11-18T16:56:21.053Z,1012.94
2017-11-18T16:57:43.046Z,1012.89
2017-11-18T16:59:05.445Z,1013.02
2017-11-18T17:00:27.353Z,1012.99
2017-11-18T17:01:49.697Z,1013.08
2017-11-18T17:03:11.480Z,1013.1
2017-11-18T17:04:33.886Z,1013.08
2017-11-18T17:05:55.987Z,1013.11
2017-11-18T17:07:18.042Z,1013.12
2017-11-18T17:08:40.350Z,1013.12
2017-11-18T17:10:02.668Z,1013.08
2017-11-18T17:11:24.705Z,1013.03
2017-11-18T17:12:47.051Z,1013.08
2017-11-18T17:14:10.570Z,1013.04
2017-11-18T17:15:32.641Z,1012.99
2017-11-18T17:16:54.692Z,1013
2017-11-18T17:18:16.837Z,1013.03
2017-11-18T17:19:38.880Z,1012.98
2017-11-18T17:21:01.216Z,1012.98
2017-11-18T17:22:23.299Z,1012.98
2017-11-18T17:23:45.356Z,1012.97
2017-11-18T17:25:07.684Z,1012.96
2017-11-18T17:26:29.814Z,1012.98
2017-11-18T17:27:51.836Z,1012.97
2017-11-18T17:29:13.587Z,1012.92
2017-11-18T17:30:35.957Z,1012.97
2017-11-18T17:31:58.271Z,1012.94
2017-11-18T17:33:20.024Z,1012.94
2017-11-18T17:34:41.752Z,1012.96
2017-11-18T17:36:04.060Z,1012.92
2017-11-18T17:37:26.710Z,1012.92
2017-11-18T17:38:48.817Z,1012.88
2017-11-18T17:40:10.626Z,1012.94
2017-11-18T17:41:32.688Z,1012.89
2017-11-18T17:42:54.697Z,1012.92
2017-11-18T17:44:16.748Z,1012.89
2017-11-18T17:45:38.221Z,1012.84
2017-11-18T17:47:00.255Z,1012.87
2017-11-18T17:48:22.646Z,1012.87
2017-11-18T17:49:44.976Z,1012.83
2017-11-18T17:51:07.014Z,1012.88
2017-11-18T17:52:28.854Z,1012.81
2017-11-18T17:53:51.145Z,1012.77
2017-11-18T17:55:13.109Z,1012.81
2017-11-18T17:56:35.425Z,1012.77
2017-11-18T17:57:57.724Z,1012.78
2017-11-18T17:59:19.791Z,1012.75
2017-11-18T18:00:41.597Z,1012.82
2017-11-18T18:02:03.347Z,1012.78
2017-11-18T18:03:25.682Z,1012.75
2017-11-18T18:04:47.444Z,1012.81
2017-11-18T18:06:09.484Z,1012.77
2017-11-18T18:07:31.807Z,1012.72
2017-11-18T18:08:53.536Z,1012.7
2017-11-18T18:10:15.355Z,1012.77
2017-11-18T18:11:37.143Z,1012.75
2017-11-18T18:12:59.418Z,1012.84
2017-11-18T18:14:21.455Z,1012.81
2017-11-18T18:15:43.454Z,1012.82
2017-11-18T18:17:05.469Z,1012.76
2017-11-18T18:18:26.932Z,1012.81
2017-11-18T18:19:48.985Z,1012.81
2017-11-18T18:21:11.018Z,1012.83
2017-11-18T18:22:32.756Z,1012.88
2017-11-18T18:23:55.231Z,1012.9
2017-11-18T18:25:17.576Z,1012.89
2017-11-18T18:26:39.338Z,1012.88
2017-11-18T18:28:00.825Z,1012.93
2017-11-18T18:29:22.867Z,1012.95
2017-11-18T18:30:45.164Z,1012.95
2017-11-18T18:32:07.546Z,1012.96
2017-11-18T18:33:29.856Z,1012.91
2017-11-18T18:34:52.269Z,1012.9
2017-11-18T18:36:14.623Z,1012.85
2017-11-18T18:37:36.637Z,1012.82
2017-11-18T18:38:58.953Z,1012.81
2017-11-18T18:40:21.289Z,1012.81
2017-11-18T18:41:43.017Z,1012.75
2017-11-18T18:43:05.165Z,1012.72
2017-11-18T18:44:26.899Z,1012.81
2017-11-18T18:45:48.634Z,1012.77
2017-11-18T18:47:10.644Z,1012.8
2017-11-18T18:48:32.654Z,1012.81
2017-11-18T18:49:54.398Z,1012.74
2017-11-18T18:51:16.511Z,1012.77
2017-11-18T18:52:38.586Z,1012.75
2017-11-18T18:54:00.606Z,1012.76
2017-11-18T18:55:22.637Z,1012.75
2017-11-18T18:56:44.649Z,1012.78
2017-11-18T18:58:06.938Z,1012.75
2017-11-18T18:59:28.935Z,1012.73
2017-11-18T19:00:51.244Z,1012.69
2017-11-18T19:02:13.248Z,1012.72
2017-11-18T19:03:35.566Z,1012.7
2017-11-18T19:04:57.611Z,1012.71
2017-11-18T19:06:19.658Z,1012.71
2017-11-18T19:07:42.113Z,1012.75
2017-11-18T19:09:04.134Z,1012.8
2017-11-18T19:10:26.219Z,1012.8
2017-11-18T19:11:48.538Z,1012.77
2017-11-18T19:13:10.566Z,1012.82
2017-11-18T19:14:32.393Z,1012.8
2017-11-18T19:15:54.411Z,1012.77
2017-11-18T19:17:16.153Z,1012.83
2017-11-18T19:18:38.470Z,1012.77
2017-11-18T19:20:00.857Z,1012.75
2017-11-18T19:21:22.906Z,1012.76
2017-11-18T19:22:44.670Z,1012.77
2017-11-18T19:24:06.998Z,1012.71
2017-11-18T19:25:29.309Z,1012.73
2017-11-18T19:26:51.346Z,1012.75
2017-11-18T19:28:13.647Z,1012.7
2017-11-18T19:29:35.670Z,1012.71
2017-11-18T19:30:57.700Z,1012.74
2017-11-18T19:32:19.447Z,1012.72
2017-11-18T19:33:41.456Z,1012.74
2017-11-18T19:35:03.490Z,1012.72
2017-11-18T19:36:25.774Z,1012.71
2017-11-18T19:37:48.138Z,1012.71
2017-11-18T19:39:10.498Z,1012.71
2017-11-18T19:40:32.512Z,1012.74
2017-11-18T19:41:54.797Z,1012.73
2017-11-18T19:43:16.537Z,1012.7
2017-11-18T19:44:38.422Z,1012.7
2017-11-18T19:46:00.737Z,1012.67
2017-11-18T19:47:22.737Z,1012.67
2017-11-18T19:48:44.760Z,1012.68
2017-11-18T19:50:06.797Z,1012.62
2017-11-18T19:51:28.920Z,1012.6
2017-11-18T19:52:51.217Z,1012.63
2017-11-18T19:54:13.567Z,1012.6
2017-11-18T19:55:35.879Z,1012.6
2017-11-18T19:56:57.996Z,1012.56
2017-11-18T19:58:20.022Z,1012.59
2017-11-18T19:59:42.368Z,1012.58
2017-11-18T20:01:04.278Z,1012.58
2017-11-18T20:02:26.598Z,1012.54
2017-11-18T20:03:48.619Z,1012.54
2017-11-18T20:05:10.678Z,1012.55
2017-11-18T20:06:33.019Z,1012.51
2017-11-18T20:07:55.327Z,1012.52
2017-11-18T20:09:17.388Z,1012.51
2017-11-18T20:10:39.840Z,1012.5
2017-11-18T20:12:01.907Z,1012.48
2017-11-18T20:13:24.242Z,1012.44
2017-11-18T20:14:46.561Z,1012.48
2017-11-18T20:16:08.953Z,1012.47
2017-11-18T20:17:31.266Z,1012.5
2017-11-18T20:18:53.607Z,1012.43
2017-11-18T20:20:15.366Z,1012.49
2017-11-18T20:21:37.676Z,1012.46
2017-11-18T20:22:59.710Z,1012.51
2017-11-18T20:24:22.000Z,1012.47
2017-11-18T20:25:44.278Z,1012.5
2017-11-18T20:27:06.568Z,1012.46
2017-11-18T20:28:28.328Z,1012.46
2017-11-18T20:29:50.068Z,1012.4
2017-11-18T20:31:12.377Z,1012.45
2017-11-18T20:32:34.125Z,1012.45
2017-11-18T20:33:56.464Z,1012.47
2017-11-18T20:35:18.477Z,1012.47
2017-11-18T20:36:40.664Z,1012.42
2017-11-18T20:38:03.017Z,1012.43
2017-11-18T20:39:25.187Z,1012.4
2017-11-18T20:40:47.220Z,1012.39
2017-11-18T20:42:09.229Z,1012.34
2017-11-18T20:43:31.260Z,1012.37
2017-11-18T20:44:53.329Z,1012.33
2017-11-18T20:46:15.114Z,1012.33
2017-11-18T20:47:37.376Z,1012.27
2017-11-18T20:48:59.393Z,1012.28
2017-11-18T20:50:21.438Z,1012.3
2017-11-18T20:51:42.902Z,1012.3
2017-11-18T20:53:05.134Z,1012.31
2017-11-18T20:54:27.231Z,1012.31
2017-11-18T20:55:49.241Z,1012.36
2017-11-18T20:57:11.101Z,1012.36
2017-11-18T20:58:32.857Z,1012.3
2017-11-18T20:59:54.606Z,1012.28
2017-11-18T21:01:16.647Z,1012.25
2017-11-18T21:02:38.861Z,1012.27
2017-11-18T21:04:01.457Z,1012.18
2017-11-18T21:05:23.192Z,1012.2
2017-11-18T21:06:45.519Z,1012.18
2017-11-18T21:08:07.288Z,1012.17
2017-11-18T21:09:29.597Z,1012.16
2017-11-18T21:10:51.908Z,1012.16
2017-11-18T21:12:13.662Z,1012.15
2017-11-18T21:13:35.710Z,1012.15
2017-11-18T21:14:57.869Z,1012.13
2017-11-18T21:16:20.129Z,1012.07
2017-11-18T21:17:42.219Z,1012.12
2017-11-18T21:19:04.219Z,1012.07
2017-11-18T21:20:26.596Z,1012.11
2017-11-18T21:21:48.618Z,1012.11
2017-11-18T21:23:10.729Z,1012.15
2017-11-18T21:24:33.074Z,1012.12
2017-11-18T21:25:55.109Z,1012.12
2017-11-18T21:27:17.159Z,1012.16
2017-11-18T21:28:38.683Z,1012.14
2017-11-18T21:30:00.990Z,1012.07
2017-11-18T21:31:23.070Z,1012.05
2017-11-18T21:32:45.402Z,1012.08
2017-11-18T21:34:07.724Z,1012.07
2017-11-18T21:35:30.036Z,1012.03
2017-11-18T21:36:52.061Z,1012.08
2017-11-18T21:38:14.109Z,1012.08
2017-11-18T21:39:35.936Z,1012.09
2017-11-18T21:40:57.890Z,1012.08
2017-11-18T21:42:20.197Z,1012.03
2017-11-18T21:43:41.716Z,1012.1
2017-11-18T21:45:03.488Z,1012.12
2017-11-18T21:46:25.238Z,1012.07
2017-11-18T21:47:46.993Z,1012.04
2017-11-18T21:49:08.753Z,1012
2017-11-18T21:50:30.548Z,1011.96
2017-11-18T21:51:52.877Z,1011.98
2017-11-18T21:53:14.909Z,1011.96
2017-11-18T21:54:37.317Z,1011.96
2017-11-18T21:55:59.646Z,1011.96
2017-11-18T21:57:21.693Z,1011.96
2017-11-18T21:58:44.198Z,1012
2017-11-18T22:00:06.587Z,1011.98
2017-11-18T22:01:28.354Z,1011.99
2017-11-18T22:02:50.439Z,1012.03
2017-11-18T22:04:12.257Z,1011.99
2017-11-18T22:05:34.565Z,1011.98
2017-11-18T22:06:56.420Z,1011.96
2017-11-18T22:08:18.407Z,1011.93
2017-11-18T22:09:40.436Z,1011.95
2017-11-18T22:11:02.599Z,1011.96
2017-11-18T22:12:24.348Z,1011.99
2017-11-18T22:13:46.416Z,1011.97
2017-11-18T22:15:08.437Z,1012
2017-11-18T22:16:30.542Z,1011.98
2017-11-18T22:17:52.584Z,1011.91
2017-11-18T22:19:14.118Z,1011.92
2017-11-18T22:20:36.144Z,1011.88
2017-11-18T22:21:57.887Z,1011.85
2017-11-18T22:23:19.638Z,1011.78
2017-11-18T22:24:41.657Z,1011.79
2017-11-18T22:26:04.020Z,1011.8
2017-11-18T22:27:26.066Z,1011.81
2017-11-18T22:28:47.796Z,1011.83
2017-11-18T22:30:10.097Z,1011.81
2017-11-18T22:31:32.395Z,1011.8
2017-11-18T22:32:54.128Z,1011.79
2017-11-18T22:34:16.148Z,1011.79
2017-11-18T22:35:37.927Z,1011.78
2017-11-18T22:36:59.768Z,1011.81
2017-11-18T22:38:21.236Z,1011.78
2017-11-18T22:39:43.885Z,1011.75
2017-11-18T22:41:05.638Z,1011.8
2017-11-18T22:42:26.847Z,1011.79
2017-11-18T22:43:48.849Z,1011.77
2017-11-18T22:45:10.957Z,1011.77
2017-11-18T22:46:33.000Z,1011.78
2017-11-18T22:47:55.274Z,1011.78
2017-11-18T22:49:17.026Z,1011.77
2017-11-18T22:50:39.330Z,1011.78
2017-11-18T22:52:01.358Z,1011.76
2017-11-18T22:53:23.620Z,1011.71
2017-11-18T22:54:45.626Z,1011.67
2017-11-18T22:56:07.085Z,1011.74
2017-11-18T22:57:29.357Z,1011.74
2017-11-18T22:58:51.810Z,1011.65
2017-11-18T23:00:13.823Z,1011.7
2017-11-18T23:01:35.847Z,1011.64
2017-11-18T23:02:58.139Z,1011.6
2017-11-18T23:04:20.401Z,1011.56
2017-11-18T23:05:42.799Z,1011.56
2017-11-18T23:07:04.533Z,1011.55
2017-11-18T23:08:26.263Z,1011.55
2017-11-18T23:09:48.046Z,1011.53
2017-11-18T23:11:10.080Z,1011.59
2017-11-18T23:12:31.561Z,1011.52
2017-11-18T23:13:53.297Z,1011.47
2017-11-18T23:15:15.337Z,1011.48
2017-11-18T23:16:38.126Z,1011.43
2017-11-18T23:18:00.186Z,1011.41
2017-11-18T23:19:22.206Z,1011.38
2017-11-18T23:20:44.275Z,1011.38
2017-11-18T23:22:06.617Z,1011.37
2017-11-18T23:23:28.887Z,1011.35
2017-11-18T23:24:50.944Z,1011.39
2017-11-18T23:26:12.660Z,1011.37
2017-11-18T23:27:34.667Z,1011.41
2017-11-18T23:28:56.698Z,1011.35
2017-11-18T23:30:18.997Z,1011.34
2017-11-18T23:31:40.777Z,1011.34
2017-11-18T23:33:02.223Z,1011.31
2017-11-18T23:34:23.702Z,1011.28
2017-11-18T23:35:45.997Z,1011.24
2017-11-18T23:37:08.003Z,1011.24
2017-11-18T23:38:29.748Z,1011.24
2017-11-18T23:39:52.050Z,1011.22
2017-11-18T23:41:14.058Z,1011.22
2017-11-18T23:42:36.056Z,1011.2
2017-11-18T23:43:57.257Z,1011.19
2017-11-18T23:45:19.262Z,1011.16
2017-11-18T23:46:41.475Z,1011.14
2017-11-18T23:48:03.225Z,1011.1
2017-11-18T23:49:24.945Z,1011.14
2017-11-18T23:50:46.960Z,1011.18
2017-11-18T23:52:08.404Z,1011.18
2017-11-18T23:53:30.417Z,1011.16
2017-11-18T23:54:52.162Z,1011.16
2017-11-18T23:56:14.188Z,1011.11
2017-11-18T23:57:35.904Z,1011.08
2017-11-18T23:58:57.903Z,1011.05
